Serian, Malaysia
Current Conditions -  °F | °C
As of 2:00 AM on Monday 26 Jan 2015 (Local Time) from WBGG Reporting Station
Broken Clouds Broken Clouds  
Wind Chill: 75°   Ceiling: 15000
Heat Index: 75°   Visibility: 6mi
Dew Point: 72°   Wind: 1mph
Humidity: 89%   Direction: 260°W
Pressure: 29.91"   Gusts: NA
Location:  1.17°N, 110.56°E
Report Text: WBGG 251800Z 26001KT 9999 SCT020 BKN150 24/22 Q1013 NOSIG
Loading
Personal Weather Stations






























Interactive Weather Map New forecast layout! Learn more

10-Day Weather Forecast

Advertisements
Track Severe Weather on mobile